Hickson, North Dakota
Current Conditions -  °F | °C
As of 3:34 AM on Tuesday 21 Oct 2014 (Local Time) from KJKJ Reporting Station
Clear Clear  
Wind Chill: 40°   Ceiling: Unl
Heat Index: 45°   Visibility: 10mi
Dew Point: 43°   Wind: 9mph
Humidity: 93%   Direction: 140°SE
Pressure: 30.07"   Gusts: NA
Location:  46.7039°N, 96.8572°W
Report Text: KJKJ 210834Z AUTO 14008KT 10SM CLR 07/06 A3007 RMK AO2
Loading
Personal Weather Stations






























Interactive Weather Map
Tropical Storm Tracking
New forecast layout! Learn more

10-Day Weather Forecast

Advertisements
Track Severe Weather on mobile